Time;durP1;ratioP1;P1;durP2;ratioP2;P2;SDS_P1;SDS_P2;PMS_P1;PMS_P2;Temp;Humidity;BMP_temperature;BMP_pressure;BME280_temperature;BME280_humidity;BME280_pressure;Samples;Min_cycle;Max_cycle;Signal;HPM_P1;HPM_P2
2023/06/20 00:00:25;;;;;;;6.65;2.00;;;29.00;99.90;;;;;;5124491;28;20027;-49
2023/06/20 00:02:51;;;;;;;5.05;2.47;;;29.10;99.90;;;;;;5124812;28;20020;-47
2023/06/20 00:05:18;;;;;;;5.20;2.25;;;29.20;99.90;;;;;;5122941;28;20020;-49
2023/06/20 00:07:45;;;;;;;4.15;1.92;;;29.30;99.90;;;;;;5123085;28;20311;-50
2023/06/20 00:10:11;;;;;;;5.20;1.70;;;29.30;99.90;;;;;;5123801;28;20057;-50
2023/06/20 00:12:41;;;;;;;4.43;1.60;;;29.30;99.90;;;;;;5123905;28;20051;-51
2023/06/20 00:15:12;;;;;;;2.97;1.83;;;29.30;99.90;;;;;;5123955;28;20020;-51
2023/06/20 00:17:38;;;;;;;4.15;2.17;;;29.30;99.90;;;;;;5124408;28;20036;-54
2023/06/20 00:20:15;;;;;;;5.65;3.40;;;29.30;99.90;;;;;;5124403;28;20020;-53
2023/06/20 00:22:43;;;;;;;4.90;4.20;;;29.30;99.90;;;;;;5124502;28;20051;-57
2023/06/20 00:25:09;;;;;;;6.47;4.03;;;29.30;99.90;;;;;;5123484;28;20027;-56
2023/06/20 00:27:51;;;;;;;8.52;3.90;;;29.30;99.90;;;;;;5124696;28;20083;-53
2023/06/20 00:30:23;;;;;;;4.60;3.20;;;29.40;99.90;;;;;;5122319;28;20030;-48
2023/06/20 00:32:58;;;;;;;4.57;2.78;;;29.40;99.90;;;;;;5123667;28;20071;-54
2023/06/20 00:35:26;;;;;;;4.28;2.50;;;29.40;99.90;;;;;;5124243;28;20341;-51
2023/06/20 00:37:53;;;;;;;3.38;2.20;;;29.40;99.90;;;;;;5124863;28;20066;-56
2023/06/20 00:40:22;;;;;;;5.32;2.90;;;29.40;99.90;;;;;;5124430;28;20325;-58
2023/06/20 00:42:49;;;;;;;6.30;2.33;;;29.30;99.90;;;;;;5124675;28;20037;-53
2023/06/20 00:45:36;;;;;;;4.93;2.28;;;29.30;99.90;;;;;;5124549;28;20023;-53
2023/06/20 00:48:10;;;;;;;6.40;2.45;;;29.30;99.90;;;;;;5124504;28;20342;-56
2023/06/20 00:50:37;;;;;;;4.28;2.08;;;29.20;99.90;;;;;;5123355;28;20028;-56
2023/06/20 00:53:08;;;;;;;4.57;1.65;;;29.20;99.90;;;;;;5124272;28;20087;-53
2023/06/20 00:55:36;;;;;;;2.72;1.38;;;29.20;99.90;;;;;;5124067;28;20023;-53
2023/06/20 00:58:04;;;;;;;2.22;1.60;;;29.20;99.90;;;;;;5127838;28;20034;-53
2023/06/20 01:00:33;;;;;;;3.78;1.50;;;29.20;99.80;;;;;;5128397;28;20012;-51
2023/06/20 01:03:06;;;;;;;2.60;1.40;;;29.20;99.80;;;;;;5128467;28;20028;-59
2023/06/20 01:05:34;;;;;;;51.70;46.90;;;29.20;99.70;;;;;;5128056;28;20164;-61
2023/06/20 01:08:28;;;;;;;29.48;26.98;;;29.00;99.50;;;;;;5136742;27;20015;-62
2023/06/20 01:11:08;;;;;;;23.55;21.27;;;28.90;99.70;;;;;;5126593;28;20046;-59
2023/06/20 01:14:00;;;;;;;12.80;11.18;;;28.90;99.90;;;;;;5128486;27;20053;-55
2023/06/20 01:16:42;;;;;;;34.78;31.42;;;28.90;99.90;;;;;;5138871;27;20034;-60
2023/06/20 01:19:21;;;;;;;24.00;21.90;;;28.90;99.90;;;;;;5126628;28;20023;-60
2023/06/20 01:21:59;;;;;;;18.27;16.58;;;28.90;99.90;;;;;;5127808;28;20242;-60
2023/06/20 01:24:46;;;;;;;11.32;10.18;;;29.00;99.90;;;;;;5127982;28;20024;-53
2023/06/20 01:27:30;;;;;;;7.60;6.43;;;29.00;99.90;;;;;;5127052;28;20031;-57
2023/06/20 01:30:01;;;;;;;6.97;5.50;;;28.90;99.90;;;;;;5127220;28;20098;-57
2023/06/20 01:33:03;;;;;;;7.25;6.03;;;28.80;99.90;;;;;;5128032;28;20290;-61
2023/06/20 01:35:32;;;;;;;8.47;5.57;;;28.80;99.90;;;;;;5127432;28;20042;-61
2023/06/20 01:38:06;;;;;;;10.02;9.00;;;28.90;99.90;;;;;;5127327;28;20269;-62
2023/06/20 01:40:35;;;;;;;10.35;7.57;;;29.00;99.90;;;;;;5127500;28;20216;-62
2023/06/20 01:43:03;;;;;;;10.10;8.82;;;29.00;99.90;;;;;;5127509;28;20032;-63
2023/06/20 01:45:36;;;;;;;8.20;5.97;;;29.00;99.90;;;;;;5108918;28;20060;-60
2023/06/20 01:48:05;;;;;;;8.20;5.55;;;29.10;99.90;;;;;;5131264;27;20019;-60
2023/06/20 01:50:34;;;;;;;4.93;3.58;;;29.20;99.90;;;;;;5132047;27;20032;-60
2023/06/20 01:53:02;;;;;;;4.72;3.03;;;29.10;99.90;;;;;;5089015;28;20083;-61
2023/06/20 01:55:30;;;;;;;7.38;3.60;;;29.10;99.90;;;;;;5107160;28;20036;-62
2023/06/20 01:58:01;;;;;;;8.45;3.20;;;29.10;99.90;;;;;;5106663;28;20096;-62
2023/06/20 02:00:32;;;;;;;6.38;3.30;;;29.00;99.90;;;;;;5115317;28;20054;-60
2023/06/20 02:03:00;;;;;;;6.57;2.58;;;29.00;99.90;;;;;;5126818;27;20024;-59
2023/06/20 02:05:31;;;;;;;11.13;2.60;;;29.10;99.90;;;;;;5134463;27;20019;-60
2023/06/20 02:08:00;;;;;;;5.55;2.05;;;29.10;99.90;;;;;;5146629;27;20303;-63
2023/06/20 02:10:28;;;;;;;5.32;2.20;;;29.10;99.90;;;;;;5148379;27;20015;-61
2023/06/20 02:13:29;;;;;;;4.03;1.88;;;29.20;99.90;;;;;;5147833;27;20015;-63
2023/06/20 02:16:01;;;;;;;4.35;1.70;;;29.10;99.90;;;;;;5130293;27;20055;-61
2023/06/20 02:18:31;;;;;;;3.47;2.05;;;29.10;99.90;;;;;;5127154;28;20019;-60
2023/06/20 02:21:15;;;;;;;4.63;2.20;;;29.10;99.90;;;;;;5108873;28;20063;-59
2023/06/20 02:23:48;;;;;;;9.48;4.85;;;29.20;99.90;;;;;;5131546;27;20015;-60
2023/06/20 02:26:17;;;;;;;5.50;4.80;;;29.20;99.90;;;;;;5127165;28;20106;-61
2023/06/20 02:28:49;;;;;;;5.18;3.33;;;29.10;99.90;;;;;;5126885;28;20027;-61
2023/06/20 02:31:21;;;;;;;5.45;2.90;;;29.10;99.90;;;;;;5108490;28;20053;-61
2023/06/20 02:33:54;;;;;;;4.10;2.40;;;29.10;99.90;;;;;;5126602;28;20365;-61
2023/06/20 02:36:25;;;;;;;5.35;2.60;;;29.10;99.90;;;;;;5140757;27;20231;-59
2023/06/20 02:38:55;;;;;;;4.32;2.20;;;29.20;99.90;;;;;;5147450;27;20019;-61
2023/06/20 02:41:23;;;;;;;4.30;2.13;;;29.20;99.90;;;;;;5147202;27;20066;-59
2023/06/20 02:43:50;;;;;;;4.32;2.20;;;29.20;99.90;;;;;;5146913;27;20011;-59
2023/06/20 02:46:47;;;;;;;6.47;2.20;;;29.20;99.90;;;;;;5145452;27;20024;-61
2023/06/20 02:49:32;;;;;;;6.25;2.70;;;29.20;99.90;;;;;;5133935;27;20046;-61
2023/06/20 02:52:13;;;;;;;4.40;2.60;;;29.20;99.90;;;;;;5126229;28;20020;-61
2023/06/20 02:54:47;;;;;;;7.55;2.85;;;29.20;99.90;;;;;;5126285;28;20032;-61
2023/06/20 02:57:18;;;;;;;7.00;2.80;;;29.20;99.90;;;;;;5107780;28;20019;-60
2023/06/20 02:59:53;;;;;;;5.75;2.80;;;29.20;99.90;;;;;;5126057;28;20035;-61
2023/06/20 03:02:20;;;;;;;6.35;2.55;;;29.30;99.90;;;;;;5126077;28;20027;-61
2023/06/20 03:04:51;;;;;;;4.43;2.63;;;29.20;99.90;;;;;;5125628;28;20047;-61
2023/06/20 03:07:19;;;;;;;7.78;2.70;;;29.20;99.90;;;;;;5126212;28;20028;-61
2023/06/20 03:09:47;;;;;;;6.35;2.40;;;29.20;99.90;;;;;;5125921;28;20084;-60
2023/06/20 03:12:14;;;;;;;5.50;2.25;;;29.20;99.90;;;;;;5134151;27;20047;-60
2023/06/20 03:14:40;;;;;;;5.97;1.83;;;29.20;99.90;;;;;;5127830;27;20058;-61
2023/06/20 03:17:07;;;;;;;7.22;2.10;;;29.20;99.90;;;;;;5125488;28;20196;-58
2023/06/20 03:19:33;;;;;;;5.65;2.17;;;29.10;99.90;;;;;;5128181;27;20031;-61
2023/06/20 03:22:00;;;;;;;5.07;1.80;;;29.10;99.90;;;;;;5137096;27;20019;-60
2023/06/20 03:24:26;;;;;;;5.80;1.67;;;29.30;99.90;;;;;;5132983;27;20055;-61
2023/06/20 03:26:53;;;;;;;5.20;1.65;;;29.20;99.90;;;;;;5125358;28;20039;-60
2023/06/20 03:29:19;;;;;;;2.92;1.70;;;29.20;99.90;;;;;;5125329;28;20019;-60
2023/06/20 03:31:46;;;;;;;6.03;2.00;;;29.20;99.90;;;;;;5125579;28;20046;-62
2023/06/20 03:34:12;;;;;;;3.55;1.70;;;29.30;99.90;;;;;;5124414;28;20022;-59
2023/06/20 03:36:39;;;;;;;6.22;1.83;;;29.20;99.90;;;;;;5123058;28;20047;-60
2023/06/20 03:39:05;;;;;;;5.47;1.88;;;29.20;99.90;;;;;;5124996;28;20271;-61
2023/06/20 03:41:31;;;;;;;4.40;1.60;;;29.20;99.90;;;;;;5125070;28;20309;-60
2023/06/20 03:43:58;;;;;;;3.97;1.33;;;29.20;99.90;;;;;;5125379;28;20041;-62
2023/06/20 03:46:24;;;;;;;2.70;1.50;;;29.00;99.90;;;;;;5122549;28;20072;-57
2023/06/20 03:48:51;;;;;;;2.90;1.40;;;29.10;99.90;;;;;;5123887;28;20338;-61
2023/06/20 03:51:18;;;;;;;5.63;1.55;;;29.00;99.90;;;;;;5123567;28;20030;-62
2023/06/20 03:53:44;;;;;;;4.18;1.60;;;29.10;99.90;;;;;;5124372;27;20061;-62
2023/06/20 03:56:11;;;;;;;4.93;1.42;;;29.00;99.90;;;;;;5131630;27;20031;-63
2023/06/20 03:58:38;;;;;;;2.95;1.60;;;29.10;99.90;;;;;;5122975;28;20024;-63
2023/06/20 04:01:06;;;;;;;4.25;1.17;;;29.00;99.90;;;;;;5122711;28;20019;-63
2023/06/20 04:03:33;;;;;;;4.22;1.30;;;29.00;99.90;;;;;;5121727;28;20027;-63
2023/06/20 04:06:01;;;;;;;5.50;1.55;;;29.10;99.90;;;;;;5123470;28;20035;-61
2023/06/20 04:08:29;;;;;;;5.45;2.13;;;29.00;99.90;;;;;;5104694;28;20107;-63
2023/06/20 04:10:56;;;;;;;9.10;2.00;;;29.00;99.90;;;;;;5124230;28;20320;-63
2023/06/20 04:13:23;;;;;;;6.50;2.03;;;29.00;99.90;;;;;;5125105;28;20304;-61
2023/06/20 04:15:49;;;;;;;5.75;1.55;;;29.00;99.90;;;;;;5106654;28;20062;-60
2023/06/20 04:18:16;;;;;;;4.05;2.10;;;29.00;99.90;;;;;;5124429;28;20078;-59
2023/06/20 04:20:42;;;;;;;4.15;1.85;;;28.90;99.90;;;;;;5124628;28;20219;-61
2023/06/20 04:23:09;;;;;;;3.05;1.90;;;29.00;99.90;;;;;;5124588;28;20078;-59
2023/06/20 04:25:36;;;;;;;4.70;1.77;;;29.00;99.90;;;;;;5124096;28;20034;-63
2023/06/20 04:28:03;;;;;;;3.50;2.10;;;29.00;99.90;;;;;;5124784;28;20043;-60
2023/06/20 04:30:31;;;;;;;4.72;2.03;;;29.10;99.90;;;;;;5124398;28;20068;-61
2023/06/20 04:32:58;;;;;;;4.68;1.60;;;29.00;99.90;;;;;;5126614;27;20073;-61
2023/06/20 04:35:24;;;;;;;7.05;2.00;;;28.90;99.90;;;;;;5141858;27;20021;-61
2023/06/20 04:37:54;;;;;;;5.70;1.73;;;28.90;99.90;;;;;;5149820;27;20299;-61
2023/06/20 04:40:20;;;;;;;3.03;1.95;;;29.00;99.90;;;;;;5148998;27;20042;-61
2023/06/20 04:42:47;;;;;;;9.48;1.80;;;29.00;99.90;;;;;;5149321;27;20023;-61
2023/06/20 04:45:14;;;;;;;3.17;1.52;;;29.00;99.90;;;;;;5135379;27;20045;-61
2023/06/20 04:47:42;;;;;;;4.60;1.63;;;29.10;99.90;;;;;;5128431;28;20038;-59
2023/06/20 04:50:09;;;;;;;8.70;2.22;;;29.00;99.90;;;;;;5128100;28;20378;-59
2023/06/20 04:52:37;;;;;;;5.15;1.73;;;28.90;99.90;;;;;;5128095;28;20069;-60
2023/06/20 04:55:03;;;;;;;3.78;1.80;;;29.00;99.90;;;;;;5126306;28;20383;-59
2023/06/20 04:57:31;;;;;;;8.20;1.70;;;29.00;99.90;;;;;;5128027;28;20062;-61
2023/06/20 04:59:58;;;;;;;5.05;2.00;;;28.90;99.90;;;;;;5125274;28;20022;-60
2023/06/20 05:02:25;;;;;;;4.45;2.47;;;29.00;99.90;;;;;;5127944;28;20185;-60
2023/06/20 05:04:52;;;;;;;11.23;2.13;;;29.00;99.90;;;;;;5127890;28;20007;-60
2023/06/20 05:07:18;;;;;;;4.75;2.20;;;29.00;99.90;;;;;;5127939;28;20016;-60
2023/06/20 05:09:45;;;;;;;4.70;1.92;;;29.00;99.90;;;;;;5131825;27;20023;-61
2023/06/20 05:12:11;;;;;;;5.40;2.15;;;29.00;99.90;;;;;;5128397;27;20031;-58
2023/06/20 05:14:38;;;;;;;6.47;2.00;;;29.00;99.90;;;;;;5127723;28;20052;-60
2023/06/20 05:17:04;;;;;;;4.43;2.30;;;29.00;99.90;;;;;;5127286;28;20372;-58
2023/06/20 05:19:33;;;;;;;5.10;2.58;;;29.10;99.90;;;;;;5109358;28;20310;-59
2023/06/20 05:21:59;;;;;;;6.05;2.80;;;29.10;99.90;;;;;;5127579;28;20078;-61
2023/06/20 05:24:26;;;;;;;5.00;2.55;;;29.20;99.90;;;;;;5127618;28;20042;-61
2023/06/20 05:26:52;;;;;;;6.72;2.67;;;29.20;99.90;;;;;;5128119;28;20019;-62
2023/06/20 05:29:19;;;;;;;5.43;2.75;;;29.10;99.90;;;;;;5127818;28;20019;-62
2023/06/20 05:31:45;;;;;;;3.13;2.03;;;29.10;99.90;;;;;;5127671;28;20027;-63
2023/06/20 05:34:11;;;;;;;5.68;2.30;;;29.20;99.90;;;;;;5127728;28;20039;-62
2023/06/20 05:36:39;;;;;;;7.57;2.15;;;29.10;99.90;;;;;;5127690;28;20020;-63
2023/06/20 05:39:08;;;;;;;6.07;1.98;;;29.10;99.90;;;;;;5127389;28;20091;-62
2023/06/20 05:41:36;;;;;;;5.05;2.00;;;29.20;99.90;;;;;;5127186;28;20027;-62
2023/06/20 05:44:03;;;;;;;4.03;1.63;;;29.20;99.90;;;;;;5125905;28;20026;-62
2023/06/20 05:46:29;;;;;;;4.93;1.52;;;29.20;99.90;;;;;;5127383;28;20346;-62
2023/06/20 05:48:59;;;;;;;4.97;1.60;;;29.10;99.90;;;;;;5127325;28;20024;-61
2023/06/20 05:51:30;;;;;;;5.82;1.80;;;29.30;99.90;;;;;;5127177;28;20055;-58
2023/06/20 05:53:57;;;;;;;3.00;1.40;;;29.20;99.90;;;;;;5127239;28;20072;-55
2023/06/20 05:56:24;;;;;;;4.13;1.55;;;29.20;99.90;;;;;;5126908;28;20031;-59
2023/06/20 05:58:50;;;;;;;7.43;1.90;;;29.30;99.90;;;;;;5127134;28;20027;-58
2023/06/20 06:01:17;;;;;;;6.28;1.42;;;29.20;99.90;;;;;;5126947;28;20316;-60
2023/06/20 06:03:43;;;;;;;4.65;1.30;;;29.20;99.90;;;;;;5126842;28;20023;-60
2023/06/20 06:06:10;;;;;;;7.88;1.65;;;29.20;99.90;;;;;;5126880;28;20091;-60
2023/06/20 06:08:37;;;;;;;4.40;1.50;;;29.20;99.90;;;;;;5126865;28;20319;-60
2023/06/20 06:11:03;;;;;;;9.95;1.77;;;29.20;99.90;;;;;;5126592;28;20023;-59
2023/06/20 06:13:29;;;;;;;4.90;1.58;;;29.10;99.90;;;;;;5126961;28;20028;-60
2023/06/20 06:15:56;;;;;;;4.88;1.90;;;29.20;99.90;;;;;;5126485;28;20055;-59
2023/06/20 06:18:22;;;;;;;5.35;1.55;;;29.20;99.90;;;;;;5127035;28;20027;-58
2023/06/20 06:20:49;;;;;;;4.63;1.60;;;29.20;99.90;;;;;;5126680;28;20315;-59
2023/06/20 06:23:15;;;;;;;4.47;1.48;;;29.10;99.90;;;;;;5127067;28;20091;-60
2023/06/20 06:25:44;;;;;;;3.35;1.40;;;29.10;99.90;;;;;;5126429;28;20011;-61
2023/06/20 06:28:11;;;;;;;6.20;1.50;;;29.10;99.90;;;;;;5126375;28;20027;-60
2023/06/20 06:30:37;;;;;;;3.55;1.30;;;29.10;99.90;;;;;;5126526;28;20031;-60
2023/06/20 06:33:07;;;;;;;4.47;1.58;;;29.20;99.90;;;;;;5126748;28;20023;-60
2023/06/20 06:35:34;;;;;;;3.65;1.45;;;29.10;99.90;;;;;;5126338;28;20097;-60
2023/06/20 06:38:01;;;;;;;5.57;1.88;;;29.10;99.90;;;;;;5126718;28;20227;-58
2023/06/20 06:40:27;;;;;;;3.67;2.00;;;29.10;99.90;;;;;;5126036;28;20231;-60
2023/06/20 06:42:54;;;;;;;5.55;2.38;;;29.10;99.90;;;;;;5126591;28;20016;-60
2023/06/20 06:45:20;;;;;;;7.20;2.00;;;29.10;99.90;;;;;;5126138;28;20129;-60
2023/06/20 06:47:47;;;;;;;5.30;1.75;;;29.10;99.90;;;;;;5126281;28;20049;-59
2023/06/20 06:50:13;;;;;;;3.78;1.95;;;29.10;99.90;;;;;;5126115;28;20030;-61
2023/06/20 06:52:40;;;;;;;5.57;1.77;;;29.00;99.90;;;;;;5126337;28;20060;-57
2023/06/20 06:55:07;;;;;;;4.47;1.55;;;29.10;99.90;;;;;;5125276;28;20060;-57
2023/06/20 06:57:33;;;;;;;4.22;1.67;;;29.10;99.90;;;;;;5126391;28;20199;-61
2023/06/20 07:00:00;;;;;;;4.95;1.70;;;29.10;99.90;;;;;;5125910;28;20092;-61
2023/06/20 07:02:27;;;;;;;5.95;1.80;;;29.10;99.90;;;;;;5125952;28;20243;-60
2023/06/20 07:04:54;;;;;;;5.22;1.73;;;29.00;99.90;;;;;;5125747;28;20028;-61
2023/06/20 07:07:20;;;;;;;5.72;1.40;;;29.10;99.90;;;;;;5125886;28;20023;-62
2023/06/20 07:09:47;;;;;;;6.97;1.70;;;29.10;99.90;;;;;;5125722;28;20016;-59
2023/06/20 07:12:14;;;;;;;5.88;1.70;;;29.10;99.90;;;;;;5125536;28;20146;-58
2023/06/20 07:14:40;;;;;;;5.88;1.67;;;29.10;99.90;;;;;;5125564;28;20079;-60
2023/06/20 07:17:06;;;;;;;8.15;1.83;;;29.10;99.90;;;;;;5125654;28;20334;-60
2023/06/20 07:19:33;;;;;;;5.32;1.85;;;29.10;99.90;;;;;;5125233;28;20077;-60
2023/06/20 07:21:59;;;;;;;5.97;1.70;;;29.10;99.90;;;;;;5125527;28;20099;-61
2023/06/20 07:24:26;;;;;;;5.05;1.88;;;29.10;99.90;;;;;;5125395;28;20345;-60
2023/06/20 07:26:52;;;;;;;5.00;1.63;;;29.10;99.90;;;;;;5125392;28;20023;-61
2023/06/20 07:29:20;;;;;;;5.68;1.90;;;29.10;99.90;;;;;;5125235;28;20031;-61
2023/06/20 07:31:46;;;;;;;5.07;1.90;;;29.10;99.90;;;;;;5125478;28;20024;-60
2023/06/20 07:34:13;;;;;;;6.40;2.13;;;29.10;99.90;;;;;;5125346;28;20177;-60
2023/06/20 07:36:40;;;;;;;8.45;2.28;;;29.10;99.90;;;;;;5125332;28;20106;-60
2023/06/20 07:39:06;;;;;;;5.10;2.03;;;29.10;99.90;;;;;;5125024;28;20012;-61
2023/06/20 07:41:33;;;;;;;5.38;1.80;;;29.10;99.90;;;;;;5124893;28;20055;-61
2023/06/20 07:43:59;;;;;;;4.28;1.98;;;29.10;99.90;;;;;;5125220;28;20059;-60
2023/06/20 07:46:26;;;;;;;9.30;2.38;;;29.10;99.90;;;;;;5124906;28;20028;-62
2023/06/20 07:48:52;;;;;;;5.28;1.80;;;29.00;99.90;;;;;;5124884;28;20039;-62
2023/06/20 07:51:20;;;;;;;2.72;1.90;;;29.10;99.90;;;;;;5124843;28;20031;-61
2023/06/20 07:53:47;;;;;;;5.93;2.22;;;29.00;99.90;;;;;;5125070;28;20034;-61
2023/06/20 07:56:13;;;;;;;6.57;2.25;;;29.10;99.90;;;;;;5124600;28;20019;-62
2023/06/20 07:58:41;;;;;;;7.50;2.40;;;29.10;99.90;;;;;;5124723;28;20035;-61
2023/06/20 08:01:08;;;;;;;5.32;2.35;;;29.10;99.90;;;;;;5124570;28;20065;-60
2023/06/20 08:03:34;;;;;;;5.30;2.33;;;29.10;99.90;;;;;;5124654;28;20022;-62
2023/06/20 08:06:01;;;;;;;7.22;2.20;;;29.10;99.90;;;;;;5123909;28;20242;-61
2023/06/20 08:08:27;;;;;;;6.65;2.30;;;29.10;99.90;;;;;;5124796;28;20047;-61
2023/06/20 08:10:54;;;;;;;7.63;2.30;;;29.10;99.90;;;;;;5124573;28;20027;-62
2023/06/20 08:13:20;;;;;;;4.40;2.25;;;29.10;99.90;;;;;;5125191;28;20035;-62
2023/06/20 08:15:46;;;;;;;4.10;2.20;;;29.10;99.90;;;;;;5124635;28;20051;-62
2023/06/20 08:18:13;;;;;;;7.32;2.20;;;29.10;99.90;;;;;;5125008;28;20238;-61
2023/06/20 08:20:41;;;;;;;4.57;2.13;;;29.10;99.90;;;;;;5124517;28;20047;-61
2023/06/20 08:23:08;;;;;;;5.32;2.03;;;29.10;99.90;;;;;;5124856;28;20023;-61
2023/06/20 08:25:34;;;;;;;6.43;2.05;;;29.10;99.90;;;;;;5124379;28;20031;-62
2023/06/20 08:28:01;;;;;;;6.07;2.47;;;29.20;99.90;;;;;;5124844;28;20043;-61
2023/06/20 08:30:27;;;;;;;7.05;2.42;;;29.20;99.90;;;;;;5124602;28;20023;-61
2023/06/20 08:32:54;;;;;;;5.75;1.98;;;29.20;99.90;;;;;;5124790;28;20379;-60
2023/06/20 08:35:20;;;;;;;5.65;2.15;;;29.10;99.90;;;;;;5124261;28;20263;-60
2023/06/20 08:37:46;;;;;;;5.55;2.30;;;29.10;99.90;;;;;;5124864;28;20038;-60
2023/06/20 08:40:14;;;;;;;5.03;1.88;;;29.10;99.90;;;;;;5134880;28;20319;-60
2023/06/20 08:42:44;;;;;;;8.30;2.30;;;29.10;99.90;;;;;;5124391;28;20028;-60
2023/06/20 08:45:12;;;;;;;4.47;2.35;;;29.20;99.90;;;;;;5124197;28;20027;-60
2023/06/20 08:47:39;;;;;;;5.50;2.03;;;29.20;99.90;;;;;;5124502;28;20023;-60
2023/06/20 08:50:06;;;;;;;6.57;2.42;;;29.10;99.90;;;;;;5124361;28;20407;-59
2023/06/20 08:52:47;;;;;;;5.78;2.28;;;29.10;99.90;;;;;;5124375;28;20038;-60
2023/06/20 08:55:17;;;;;;;8.50;2.00;;;29.10;99.90;;;;;;5124011;28;20308;-60
2023/06/20 08:57:47;;;;;;;4.68;2.45;;;29.10;99.90;;;;;;5124016;28;20028;-60
2023/06/20 09:00:21;;;;;;;5.28;2.33;;;29.10;99.90;;;;;;5124006;28;20338;-60
2023/06/20 09:02:51;;;;;;;4.13;2.38;;;29.10;99.90;;;;;;5124365;28;20031;-60
2023/06/20 09:05:18;;;;;;;4.65;2.30;;;29.10;99.90;;;;;;5124044;28;20368;-60
2023/06/20 09:07:45;;;;;;;5.30;2.17;;;29.10;99.90;;;;;;5124269;28;20027;-60
2023/06/20 09:10:14;;;;;;;6.93;2.17;;;29.10;99.90;;;;;;5123974;28;20058;-60
2023/06/20 09:12:59;;;;;;;6.90;2.35;;;29.10;99.90;;;;;;5124287;28;20028;-61
2023/06/20 09:15:27;;;;;;;4.13;2.40;;;29.20;99.90;;;;;;5123819;28;20336;-60
2023/06/20 09:17:59;;;;;;;7.78;2.42;;;29.10;99.90;;;;;;5125746;28;20031;-60
2023/06/20 09:20:28;;;;;;;4.28;2.47;;;29.20;99.90;;;;;;5127530;28;20043;-60
2023/06/20 09:22:55;;;;;;;5.10;2.10;;;29.10;99.90;;;;;;5128305;28;20023;-60
2023/06/20 09:25:27;;;;;;;5.45;2.50;;;29.10;99.90;;;;;;5127653;28;20049;-59
2023/06/20 09:27:55;;;;;;;8.07;2.40;;;29.20;99.90;;;;;;5127967;28;20028;-60
2023/06/20 09:30:22;;;;;;;9.00;2.28;;;29.20;99.90;;;;;;5127547;28;20027;-59
2023/06/20 09:32:49;;;;;;;6.03;2.60;;;29.20;99.90;;;;;;5127890;28;20073;-60
2023/06/20 09:35:16;;;;;;;5.10;2.22;;;29.20;99.90;;;;;;5127310;28;20031;-59
2023/06/20 09:37:47;;;;;;;5.03;2.45;;;29.20;99.90;;;;;;5127728;28;20061;-61
2023/06/20 09:40:16;;;;;;;5.72;2.80;;;29.20;99.90;;;;;;5127607;28;20016;-60
2023/06/20 09:42:44;;;;;;;3.88;2.33;;;29.20;99.90;;;;;;5127232;28;20037;-60
2023/06/20 09:45:13;;;;;;;4.72;2.67;;;29.10;99.90;;;;;;5127351;28;20024;-60
2023/06/20 09:47:40;;;;;;;6.18;2.90;;;29.20;99.90;;;;;;5127559;28;20024;-57
2023/06/20 09:50:21;;;;;;;5.85;2.65;;;29.20;99.90;;;;;;5127237;28;20254;-60
2023/06/20 09:52:58;;;;;;;6.95;2.30;;;29.30;99.90;;;;;;5127523;28;20309;-60
2023/06/20 09:55:26;;;;;;;4.88;2.35;;;29.20;99.90;;;;;;5127072;28;20110;-59
2023/06/20 09:57:57;;;;;;;5.50;2.45;;;29.10;99.90;;;;;;5127450;28;20019;-60
2023/06/20 10:00:26;;;;;;;5.87;2.60;;;29.10;99.90;;;;;;5126870;28;20062;-59
2023/06/20 10:02:56;;;;;;;5.07;2.47;;;29.20;99.90;;;;;;5127361;28;20535;-61
2023/06/20 10:05:24;;;;;;;4.30;2.28;;;29.30;99.90;;;;;;5126969;28;20043;-61
2023/06/20 10:07:51;;;;;;;6.22;2.80;;;29.30;99.90;;;;;;5127172;28;20051;-61
2023/06/20 10:10:18;;;;;;;6.85;2.67;;;29.30;99.90;;;;;;5126737;28;20028;-61
2023/06/20 10:12:46;;;;;;;5.60;2.83;;;29.40;99.90;;;;;;5127211;28;20032;-60
2023/06/20 10:15:16;;;;;;;4.88;2.50;;;29.30;99.90;;;;;;5126360;28;20399;-63
2023/06/20 10:17:47;;;;;;;9.77;2.92;;;29.30;99.90;;;;;;5127036;28;20050;-60
2023/06/20 10:20:34;;;;;;;6.70;2.63;;;29.30;99.90;;;;;;5126587;28;20128;-62
2023/06/20 10:23:07;;;;;;;6.88;2.63;;;29.30;99.90;;;;;;5126857;28;20028;-63
2023/06/20 10:25:34;;;;;;;5.35;2.35;;;29.30;99.90;;;;;;5126349;28;20072;-60
2023/06/20 10:28:05;;;;;;;6.75;2.80;;;29.40;99.90;;;;;;5126739;28;20056;-62
2023/06/20 10:30:50;;;;;;;5.77;2.60;;;29.40;99.90;;;;;;5126109;28;20035;-60
2023/06/20 10:33:32;;;;;;;4.65;2.58;;;29.30;99.90;;;;;;5126227;28;20573;-62
2023/06/20 10:36:00;;;;;;;6.45;2.63;;;29.30;99.90;;;;;;5126354;28;20094;-61
2023/06/20 10:38:28;;;;;;;5.65;2.60;;;29.30;99.90;;;;;;5126214;28;20035;-61
2023/06/20 10:41:24;;;;;;;3.78;2.50;;;29.30;99.90;;;;;;5126551;28;20051;-63
2023/06/20 10:43:59;;;;;;;8.00;3.08;;;29.30;99.90;;;;;;5126586;28;20031;-62
2023/06/20 10:46:34;;;;;;;4.40;2.97;;;29.30;99.90;;;;;;5126095;28;20027;-61
2023/06/20 10:49:04;;;;;;;8.45;3.35;;;29.30;99.90;;;;;;5126130;28;20032;-63
2023/06/20 10:51:41;;;;;;;7.93;2.95;;;29.30;99.90;;;;;;5126336;28;20034;-61
2023/06/20 10:54:09;;;;;;;8.80;3.17;;;29.30;99.90;;;;;;5125962;28;20055;-62
2023/06/20 10:56:35;;;;;;;8.07;2.90;;;29.30;99.90;;;;;;5126087;28;20047;-61
2023/06/20 10:59:12;;;;;;;5.57;2.58;;;29.30;99.90;;;;;;5126026;28;20024;-62
2023/06/20 11:01:39;;;;;;;7.88;2.65;;;29.30;99.90;;;;;;5125626;28;20055;-61
2023/06/20 11:04:13;;;;;;;5.40;2.90;;;29.30;99.90;;;;;;5125987;28;20019;-61
2023/06/20 11:06:40;;;;;;;4.70;2.88;;;29.30;99.90;;;;;;5124967;28;20028;-61
2023/06/20 11:09:17;;;;;;;3.72;2.92;;;29.40;99.90;;;;;;5120603;28;20024;-62
2023/06/20 11:11:43;;;;;;;6.97;2.90;;;29.40;99.90;;;;;;5127472;27;20038;-62
2023/06/20 11:14:10;;;;;;;5.85;3.10;;;29.40;99.90;;;;;;5125359;28;20030;-61
2023/06/20 11:16:37;;;;;;;6.75;3.03;;;29.30;99.90;;;;;;5125506;28;20015;-62
2023/06/20 11:19:04;;;;;;;8.70;3.03;;;29.40;99.90;;;;;;5125654;28;20039;-61
2023/06/20 11:21:30;;;;;;;6.30;2.85;;;29.40;99.90;;;;;;5125273;28;20020;-61
2023/06/20 11:24:03;;;;;;;6.15;2.80;;;29.30;99.90;;;;;;5125486;28;20091;-61
2023/06/20 11:26:29;;;;;;;;;;;29.30;99.90;;;;;;5125676;28;20019;-61
2023/06/20 11:29:04;;;;;;;6.20;3.30;;;29.30;99.90;;;;;;5140956;27;19915;-60
2023/06/20 11:31:32;;;;;;;8.13;3.53;;;29.40;99.90;;;;;;5125340;28;20091;-59
2023/06/20 11:34:09;;;;;;;10.88;3.03;;;29.30;99.90;;;;;;5125356;28;20028;-62
2023/06/20 11:36:37;;;;;;;9.35;3.60;;;29.30;99.90;;;;;;5125263;28;20027;-61
2023/06/20 11:39:08;;;;;;;11.27;3.80;;;29.30;99.90;;;;;;5125164;28;20246;-60
2023/06/20 11:41:35;;;;;;;6.32;3.35;;;29.40;99.90;;;;;;5124810;28;20086;-61
2023/06/20 11:44:03;;;;;;;7.35;3.35;;;29.30;99.90;;;;;;5125353;28;20043;-60
2023/06/20 11:46:30;;;;;;;5.05;3.13;;;29.40;99.90;;;;;;5125089;28;20265;-60
2023/06/20 11:48:57;;;;;;;7.03;3.40;;;29.30;99.90;;;;;;5125023;28;20207;-59
2023/06/20 11:51:29;;;;;;;6.13;3.60;;;29.30;99.90;;;;;;5124824;28;20073;-62
2023/06/20 11:54:04;;;;;;;8.40;3.63;;;29.40;99.90;;;;;;5125282;28;20039;-60
2023/06/20 11:56:31;;;;;;;5.95;3.72;;;29.40;99.90;;;;;;5124634;28;20033;-60
2023/06/20 11:59:00;;;;;;;8.32;4.38;;;29.30;99.90;;;;;;5125034;28;20083;-61
2023/06/20 12:01:28;;;;;;;5.90;4.20;;;29.40;99.90;;;;;;5124627;28;20032;-58
2023/06/20 12:04:03;;;;;;;7.18;4.15;;;29.30;99.90;;;;;;5124840;28;20023;-62
2023/06/20 12:06:44;;;;;;;5.05;4.40;;;29.30;99.90;;;;;;5124710;28;20019;-62
2023/06/20 12:09:17;;;;;;;6.32;3.80;;;29.40;99.90;;;;;;5124825;28;20035;-60
2023/06/20 12:11:55;;;;;;;7.68;4.32;;;29.30;99.90;;;;;;5124540;28;20083;-60
2023/06/20 12:14:23;;;;;;;6.50;4.03;;;29.40;99.90;;;;;;5124380;28;20038;-60
2023/06/20 12:16:51;;;;;;;7.03;4.15;;;29.40;99.90;;;;;;5124544;28;20207;-61
2023/06/20 12:19:21;;;;;;;6.80;4.25;;;29.30;99.90;;;;;;5124631;28;20049;-59
2023/06/20 12:21:49;;;;;;;10.98;4.55;;;29.40;99.90;;;;;;5124581;28;20095;-62
2023/06/20 12:24:16;;;;;;;10.82;4.75;;;29.30;99.90;;;;;;5124530;28;20246;-61
2023/06/20 12:26:46;;;;;;;10.75;5.07;;;29.30;99.90;;;;;;5124178;28;20027;-61
2023/06/20 12:29:13;;;;;;;40.50;7.75;;;29.40;99.90;;;;;;5124738;28;20103;-60
2023/06/20 12:31:39;;;;;;;12.05;4.93;;;29.30;99.90;;;;;;5124563;28;20020;-60
2023/06/20 12:34:06;;;;;;;22.15;5.57;;;29.30;99.90;;;;;;5124071;28;20028;-60
2023/06/20 12:36:33;;;;;;;17.77;5.68;;;29.40;99.90;;;;;;5123927;28;20082;-57
2023/06/20 12:39:00;;;;;;;16.10;4.97;;;29.30;99.90;;;;;;5123999;28;20020;-61
2023/06/20 12:41:36;;;;;;;12.32;5.45;;;29.20;99.90;;;;;;5123724;28;20039;-61
2023/06/20 12:44:03;;;;;;;13.70;5.88;;;29.10;99.90;;;;;;5124002;28;20016;-61
2023/06/20 12:46:30;;;;;;;27.80;6.28;;;29.20;99.90;;;;;;5124161;28;20027;-63
2023/06/20 12:48:56;;;;;;;14.38;5.07;;;29.30;99.90;;;;;;5124277;28;20011;-62
2023/06/20 12:51:23;;;;;;;22.70;5.60;;;29.30;99.90;;;;;;5124082;28;20028;-62
2023/06/20 12:53:50;;;;;;;21.02;5.47;;;29.30;99.90;;;;;;5127306;28;20038;-62
2023/06/20 12:56:17;;;;;;;25.98;6.22;;;29.30;99.90;;;;;;5128047;28;20030;-62